Time;durP1;ratioP1;P1;durP2;ratioP2;P2;SDS_P1;SDS_P2;PMS_P1;PMS_P2;Temp;Humidity;BMP_temperature;BMP_pressure;BME280_temperature;BME280_humidity;BME280_pressure;Samples;Min_cycle;Max_cycle;Signal;HPM_P1;HPM_P2
2021/06/10 00:00:32;;;;;;;8.88;7.88;;;;;;;19.86;62.39;97697.34;5030274;28;20063;-75
2021/06/10 00:02:58;;;;;;;8.20;7.40;;;;;;;19.84;62.34;97689.72;5029522;28;20478;-75
2021/06/10 00:05:23;;;;;;;9.68;8.77;;;;;;;19.83;62.44;97696.09;5030684;28;20017;-75
2021/06/10 00:07:49;;;;;;;9.40;8.50;;;;;;;19.85;62.30;97696.59;5029986;28;20121;-75
2021/06/10 00:10:16;;;;;;;10.20;9.00;;;;;;;19.79;62.19;97695.09;5029693;28;20033;-75
2021/06/10 00:12:42;;;;;;;9.45;8.55;;;;;;;19.78;62.48;97693.53;5030658;28;20022;-75
2021/06/10 00:15:10;;;;;;;10.30;9.02;;;;;;;19.70;62.65;97699.47;5029679;28;20117;-75
2021/06/10 00:17:36;;;;;;;9.60;8.75;;;;;;;19.75;62.47;97699.41;4992845;28;20045;-75
2021/06/10 00:20:02;;;;;;;8.75;7.95;;;;;;;19.75;62.10;97688.84;5026667;28;20040;-75
2021/06/10 00:22:27;;;;;;;9.15;8.25;;;;;;;19.69;62.20;97689.94;5013287;28;20037;-75
2021/06/10 00:24:53;;;;;;;9.18;8.23;;;;;;;19.63;62.23;97697.19;5013589;28;20033;-75
2021/06/10 00:27:21;;;;;;;9.27;8.38;;;;;;;19.59;62.25;97698.84;5030690;28;20031;-75
2021/06/10 00:29:47;;;;;;;8.88;7.97;;;;;;;19.51;62.46;97704.81;5029984;28;20108;-75
2021/06/10 00:32:14;;;;;;;8.90;8.02;;;;;;;19.47;62.74;97694.03;4993117;28;20033;-75
2021/06/10 00:34:40;;;;;;;9.68;8.68;;;;;;;19.44;62.28;97700.66;5029669;28;20025;-75
2021/06/10 00:37:05;;;;;;;9.15;8.25;;;;;;;19.38;62.57;97706.31;5030001;28;20124;-75
2021/06/10 00:39:31;;;;;;;9.57;8.60;;;;;;;19.31;62.77;97698.75;5012716;28;20512;-75
2021/06/10 00:41:56;;;;;;;9.82;8.88;;;;;;;19.28;62.77;97705.41;5010821;28;20038;-75
2021/06/10 00:44:21;;;;;;;10.73;9.63;;;;;;;19.28;62.86;97707.28;5013230;28;20104;-75
2021/06/10 00:46:47;;;;;;;10.75;9.65;;;;;;;19.25;62.94;97692.78;5013298;28;20029;-75
2021/06/10 00:49:12;;;;;;;10.20;9.20;;;;;;;19.22;63.04;97701.25;5009771;28;20026;-75
2021/06/10 00:51:38;;;;;;;12.40;10.00;;;;;;;19.21;63.18;97701.56;5029546;28;20105;-75
2021/06/10 00:54:04;;;;;;;10.32;9.20;;;;;;;19.21;63.17;97704.19;5029442;28;20029;-75
2021/06/10 00:56:30;;;;;;;10.63;9.63;;;;;;;19.20;63.62;97703.41;5013350;28;20029;-75
2021/06/10 00:58:55;;;;;;;10.95;9.75;;;;;;;19.12;63.56;97693.50;5024155;28;20041;-75
2021/06/10 01:01:21;;;;;;;10.98;9.73;;;;;;;19.16;63.44;97697.16;5007989;28;20041;-75
2021/06/10 01:03:46;;;;;;;10.05;9.02;;;;;;;19.16;63.53;97699.78;5043782;22;20037;-77
2021/06/10 01:06:23;;;;;;;10.93;9.82;;;;;;;19.02;63.57;97697.09;5035410;28;20515;-77
2021/06/10 01:09:12;;;;;;;10.73;9.65;;;;;;;18.90;64.02;97692.25;5055407;28;20032;-77
2021/06/10 01:12:01;;;;;;;11.32;10.30;;;;;;;18.87;63.91;97684.88;5055415;28;20029;-77
2021/06/10 01:14:40;;;;;;;9.93;8.93;;;;;;;18.87;64.01;97698.09;5072651;28;20028;-78
2021/06/10 01:17:06;;;;;;;11.23;10.13;;;;;;;19.03;63.38;97684.66;5050052;28;20064;-78
2021/06/10 01:19:41;;;;;;;11.10;10.07;;;;;;;18.90;63.87;97702.78;5038724;28;20139;-77
2021/06/10 01:22:24;;;;;;;9.98;8.98;;;;;;;18.86;63.65;97704.41;5055850;28;20028;-77
2021/06/10 01:24:55;;;;;;;9.98;8.98;;;;;;;19.01;63.11;97698.16;5038205;28;20033;-77
2021/06/10 01:27:28;;;;;;;9.75;8.75;;;;;;;18.76;63.52;97691.34;5039063;28;20460;-78
2021/06/10 01:29:58;;;;;;;10.60;9.50;;;;;;;18.96;63.03;97692.16;5033742;28;20426;-77
2021/06/10 01:32:24;;;;;;;11.07;9.90;;;;;;;18.91;62.78;97687.75;5049073;28;20029;-77
2021/06/10 01:34:51;;;;;;;11.00;9.48;;;;;;;18.85;62.91;97689.69;5033390;28;20063;-78
2021/06/10 01:37:17;;;;;;;11.27;10.07;;;;;;;18.75;63.18;97689.78;5037132;28;20128;-77
2021/06/10 01:39:43;;;;;;;10.70;9.65;;;;;;;18.68;63.53;97689.34;5015815;28;20443;-77
2021/06/10 01:42:10;;;;;;;11.02;9.88;;;;;;;18.60;63.50;97693.41;5018819;28;20391;-78
2021/06/10 01:44:36;;;;;;;10.85;9.80;;;;;;;18.63;63.72;97689.44;5037709;28;20033;-77
2021/06/10 01:47:01;;;;;;;10.95;9.95;;;;;;;18.69;63.36;97698.81;5017886;28;20036;-77
2021/06/10 01:49:27;;;;;;;11.32;10.23;;;;;;;18.55;63.72;97696.09;5032309;28;20049;-77
2021/06/10 01:51:53;;;;;;;10.95;9.93;;;;;;;18.49;64.06;97687.47;5018446;28;20506;-78
2021/06/10 01:54:18;;;;;;;11.15;10.05;;;;;;;18.51;63.95;97695.88;5054031;28;20056;-77
2021/06/10 01:56:45;;;;;;;11.02;9.93;;;;;;;18.42;64.02;97687.03;5037506;28;20044;-77
2021/06/10 01:59:11;;;;;;;10.20;9.07;;;;;;;18.43;64.27;97690.47;5055038;28;20035;-77
2021/06/10 02:01:37;;;;;;;11.23;10.05;;;;;;;18.38;64.30;97690.53;5037914;28;20021;-77
2021/06/10 02:04:05;;;;;;;12.13;10.25;;;;;;;18.36;64.56;97688.16;5055336;28;20044;-77
2021/06/10 02:06:31;;;;;;;11.35;10.25;;;;;;;18.25;64.44;97682.22;5066727;28;20029;-77
2021/06/10 02:08:58;;;;;;;12.00;10.80;;;;;;;18.29;64.68;97691.13;5051988;28;20067;-77
2021/06/10 02:11:24;;;;;;;11.38;10.27;;;;;;;18.26;64.50;97696.19;5048186;28;20382;-77
2021/06/10 02:13:50;;;;;;;11.38;9.98;;;;;;;18.29;64.85;97691.13;5047937;28;20054;-77
2021/06/10 02:16:16;;;;;;;11.50;10.25;;;;;;;18.28;64.68;97696.69;5070804;28;20406;-77
2021/06/10 02:18:45;;;;;;;11.88;10.65;;;;;;;18.13;64.60;97689.75;5063983;28;20555;-77
2021/06/10 02:21:11;;;;;;;12.70;11.45;;;;;;;18.22;64.75;97685.41;5053975;28;20086;-77
2021/06/10 02:23:37;;;;;;;12.45;11.25;;;;;;;18.17;64.64;97679.44;5070236;28;20032;-78
2021/06/10 02:26:04;;;;;;;11.95;10.75;;;;;;;18.21;64.85;97683.84;5070753;28;20032;-78
2021/06/10 02:28:31;;;;;;;12.15;10.77;;;;;;;18.24;64.66;97690.41;5070679;28;20041;-77
2021/06/10 02:30:56;;;;;;;13.23;11.82;;;;;;;18.19;64.80;97679.94;5053711;28;20036;-77
2021/06/10 02:33:22;;;;;;;12.40;11.20;;;;;;;18.22;64.81;97682.78;5039798;28;20032;-77
2021/06/10 02:35:47;;;;;;;12.80;11.50;;;;;;;18.14;64.78;97678.13;5034701;28;20028;-77
2021/06/10 02:38:13;;;;;;;12.45;11.23;;;;;;;18.21;64.79;97696.25;5070064;28;20037;-77
2021/06/10 02:40:45;;;;;;;13.40;11.85;;;;;;;18.03;65.33;97693.28;5041460;28;20182;-77
2021/06/10 02:43:11;;;;;;;13.85;12.43;;;;;;;18.08;65.19;97687.94;5070396;28;20541;-77
2021/06/10 02:45:38;;;;;;;12.25;11.05;;;;;;;18.03;65.34;97695.91;5069854;28;20017;-77
2021/06/10 02:48:04;;;;;;;13.57;12.20;;;;;;;18.02;65.39;97683.78;5069975;28;20119;-77
2021/06/10 02:50:30;;;;;;;12.68;11.38;;;;;;;18.02;65.57;97680.38;5053179;28;20070;-77
2021/06/10 02:52:58;;;;;;;15.43;13.38;;;;;;;17.94;65.65;97685.19;5070006;28;20059;-77
2021/06/10 02:55:24;;;;;;;15.65;14.05;;;;;;;17.99;65.71;97681.72;5052523;28;20020;-77
2021/06/10 02:57:52;;;;;;;16.38;14.63;;;;;;;17.98;65.70;97688.06;5053170;28;20530;-77
2021/06/10 03:00:19;;;;;;;21.88;18.73;;;;;;;18.17;65.71;97687.34;5051623;28;20064;-77
2021/06/10 03:02:45;;;;;;;19.00;16.90;;;;;;;18.22;65.60;97689.91;5053262;28;20028;-77
2021/06/10 03:05:11;;;;;;;20.40;17.55;;;;;;;18.26;65.49;97688.28;5046549;28;20544;-77
2021/06/10 03:07:37;;;;;;;20.70;18.45;;;;;;;18.30;65.67;97679.53;5053246;28;20500;-77
2021/06/10 03:10:07;;;;;;;20.33;18.23;;;;;;;18.23;65.76;97687.00;5036404;28;20119;-77
2021/06/10 03:12:33;;;;;;;20.98;18.05;;;;;;;18.33;65.76;97684.25;5052435;28;20032;-77
2021/06/10 03:15:00;;;;;;;18.80;16.80;;;;;;;18.37;65.48;97684.47;5069761;28;20123;-77
2021/06/10 03:17:25;;;;;;;19.85;17.50;;;;;;;18.41;65.56;97685.47;5032078;28;20475;-77
2021/06/10 03:19:51;;;;;;;18.58;16.35;;;;;;;18.39;65.52;97677.06;5050538;28;20024;-77
2021/06/10 03:22:16;;;;;;;19.35;17.35;;;;;;;18.40;65.46;97675.97;5052736;28;20033;-77
2021/06/10 03:24:43;;;;;;;20.20;17.58;;;;;;;18.36;65.41;97677.63;5062618;28;20033;-77
2021/06/10 03:27:09;;;;;;;19.95;17.85;;;;;;;18.39;65.55;97671.78;5052761;28;20181;-77
2021/06/10 03:29:35;;;;;;;20.45;18.23;;;;;;;18.46;65.12;97674.06;5036364;28;20143;-77
2021/06/10 03:32:00;;;;;;;22.55;18.40;;;;;;;18.49;65.14;97682.19;5046022;28;20491;-78
2021/06/10 03:34:28;;;;;;;19.85;17.73;;;;;;;18.47;65.14;97679.06;5050438;28;20035;-77
2021/06/10 03:36:54;;;;;;;19.33;16.67;;;;;;;18.43;64.99;97672.00;5063130;28;20475;-77
2021/06/10 03:39:21;;;;;;;17.30;15.40;;;;;;;18.45;64.88;97670.63;5069451;28;20086;-77
2021/06/10 03:41:47;;;;;;;17.90;16.10;;;;;;;18.45;64.98;97678.53;5036461;28;20127;-77
2021/06/10 03:44:14;;;;;;;20.13;17.98;;;;;;;18.42;65.00;97670.41;5052368;28;20450;-77
2021/06/10 03:46:42;;;;;;;21.65;18.38;;;;;;;18.37;65.35;97681.03;5036369;28;20041;-77
2021/06/10 03:49:10;;;;;;;21.13;18.15;;;;;;;18.40;65.15;97680.47;5069799;28;20037;-78
2021/06/10 03:51:36;;;;;;;20.75;17.92;;;;;;;18.45;65.19;97675.13;5063818;28;20313;-77
2021/06/10 03:54:01;;;;;;;19.73;17.08;;;;;;;18.48;65.24;97672.72;5052686;28;20470;-77
2021/06/10 03:56:26;;;;;;;19.88;17.77;;;;;;;18.49;65.27;97676.13;5036072;28;20036;-77
2021/06/10 03:58:52;;;;;;;20.25;18.15;;;;;;;18.45;65.13;97675.91;5029877;28;20382;-77
2021/06/10 04:01:17;;;;;;;19.13;17.23;;;;;;;18.45;65.04;97675.91;5070143;28;20029;-77
2021/06/10 04:03:42;;;;;;;18.80;15.45;;;;;;;18.41;64.89;97669.66;5068865;28;20217;-77
2021/06/10 04:06:10;;;;;;;16.20;14.60;;;;;;;18.46;64.67;97674.06;5063728;28;20033;-77
2021/06/10 04:08:36;;;;;;;14.52;13.13;;;;;;;18.44;64.57;97674.34;5053539;28;20024;-77
2021/06/10 04:11:01;;;;;;;14.30;12.90;;;;;;;18.48;64.52;97685.91;5052560;28;20410;-77
2021/06/10 04:13:27;;;;;;;16.33;14.68;;;;;;;18.48;64.85;97677.22;5034960;28;20037;-77
2021/06/10 04:15:52;;;;;;;18.38;15.15;;;;;;;18.50;64.69;97675.84;5068599;28;20025;-77
2021/06/10 04:18:18;;;;;;;18.17;16.33;;;;;;;18.50;65.10;97677.72;5044096;28;20208;-77
2021/06/10 04:20:49;;;;;;;19.90;17.80;;;;;;;18.43;65.32;97682.53;5042914;28;20036;-77
2021/06/10 04:23:14;;;;;;;19.33;17.23;;;;;;;18.55;65.07;97679.50;5068622;28;20036;-77
2021/06/10 04:25:39;;;;;;;18.80;16.85;;;;;;;18.53;65.23;97675.28;5064617;28;20025;-77
2021/06/10 04:28:05;;;;;;;20.77;17.92;;;;;;;18.62;64.86;97682.56;5066672;28;20033;-77
2021/06/10 04:30:30;;;;;;;19.83;17.75;;;;;;;18.67;64.95;97682.50;5065141;28;20037;-77
2021/06/10 04:32:56;;;;;;;19.38;17.27;;;;;;;18.70;64.91;97677.44;5031470;28;20042;-77
2021/06/10 04:35:21;;;;;;;19.20;17.15;;;;;;;18.70;64.87;97676.66;5045010;28;20463;-77
2021/06/10 04:37:47;;;;;;;19.52;17.52;;;;;;;18.79;64.87;97677.59;5054422;28;20072;-77
2021/06/10 04:40:13;;;;;;;19.50;17.50;;;;;;;18.92;64.77;97686.69;5055230;28;20032;-77
2021/06/10 04:42:38;;;;;;;20.90;18.67;;;;;;;19.01;64.51;97682.31;5048070;28;20034;-77
2021/06/10 04:45:04;;;;;;;21.17;18.98;;;;;;;19.07;64.32;97675.91;5065071;28;20034;-77
2021/06/10 04:47:30;;;;;;;20.00;17.92;;;;;;;19.19;64.09;97680.75;5055899;28;20504;-77
2021/06/10 04:49:55;;;;;;;19.83;16.52;;;;;;;19.20;64.06;97679.66;5066144;28;20033;-77
2021/06/10 04:52:20;;;;;;;19.27;17.33;;;;;;;19.29;63.83;97690.34;5072131;28;20036;-77
2021/06/10 04:54:46;;;;;;;19.17;17.23;;;;;;;19.35;63.97;97696.34;5071285;28;20032;-77
2021/06/10 04:57:11;;;;;;;21.77;19.48;;;;;;;19.44;63.56;97705.16;5072438;28;20024;-77
2021/06/10 04:59:36;;;;;;;20.67;18.48;;;;;;;19.51;62.95;97684.44;5054345;28;20025;-77
2021/06/10 05:02:04;;;;;;;22.20;19.88;;;;;;;19.58;62.48;97692.78;5050623;28;20036;-77
2021/06/10 05:04:30;;;;;;;22.70;20.27;;;;;;;19.72;62.27;97692.03;5064039;28;20114;-77
2021/06/10 05:06:56;;;;;;;21.75;19.08;;;;;;;19.76;62.06;97685.13;5069964;28;20043;-77
2021/06/10 05:09:21;;;;;;;22.85;20.50;;;;;;;19.90;61.85;97695.72;5070042;28;20032;-77
2021/06/10 05:11:47;;;;;;;26.27;23.48;;;;;;;19.94;61.33;97692.19;5052974;28;20029;-77
2021/06/10 05:14:12;;;;;;;24.02;21.58;;;;;;;20.05;61.36;97686.69;5053884;28;20033;-77
2021/06/10 05:16:38;;;;;;;26.30;23.25;;;;;;;20.08;60.72;97691.41;5069503;28;20028;-77
2021/06/10 05:19:03;;;;;;;28.25;22.77;;;;;;;20.13;60.63;97689.44;5070411;28;20554;-77
2021/06/10 05:21:29;;;;;;;27.30;24.38;;;;;;;20.19;60.45;97688.28;5069707;28;20036;-77
2021/06/10 05:23:55;;;;;;;26.58;23.67;;;;;;;20.28;59.87;97696.31;5069256;28;20056;-77
2021/06/10 05:26:20;;;;;;;26.70;23.88;;;;;;;20.34;60.24;97700.44;5040586;28;20033;-77
2021/06/10 05:28:46;;;;;;;26.73;23.83;;;;;;;20.39;59.78;97696.88;5065288;28;20542;-77
2021/06/10 05:31:11;;;;;;;28.98;24.75;;;;;;;20.48;59.75;97695.13;5047525;28;20455;-78
2021/06/10 05:33:37;;;;;;;25.90;23.10;;;;;;;20.61;59.45;97700.69;5047412;28;20037;-77
2021/06/10 05:36:04;;;;;;;26.17;23.35;;;;;;;20.67;59.65;97688.97;5036110;28;20038;-77
2021/06/10 05:38:30;;;;;;;25.50;22.45;;;;;;;20.80;59.40;97695.28;5031195;28;20048;-77
2021/06/10 05:40:55;;;;;;;23.35;20.92;;;;;;;20.83;59.74;97695.47;5036951;28;20021;-77
2021/06/10 05:43:23;;;;;;;25.10;22.23;;;;;;;21.03;59.37;97702.19;5053843;28;20028;-77
2021/06/10 05:45:49;;;;;;;23.75;21.20;;;;;;;21.18;59.00;97694.97;5070283;28;20074;-77
2021/06/10 05:48:15;;;;;;;23.40;20.23;;;;;;;21.23;58.48;97686.91;5030599;28;20028;-77
2021/06/10 05:50:40;;;;;;;24.05;21.55;;;;;;;21.35;57.73;97695.06;5063319;28;20035;-77
2021/06/10 05:53:05;;;;;;;22.27;20.02;;;;;;;21.44;57.30;97697.81;5035968;28;20020;-77
2021/06/10 05:55:31;;;;;;;24.73;22.05;;;;;;;21.57;57.02;97696.19;5059120;28;20112;-77
2021/06/10 05:57:56;;;;;;;24.40;21.75;;;;;;;21.60;57.23;97701.66;5047004;28;20119;-77
2021/06/10 06:00:22;;;;;;;24.95;22.25;;;;;;;21.45;56.58;97697.47;5040442;28;20021;-77
2021/06/10 06:02:47;;;;;;;25.83;23.08;;;;;;;21.20;57.41;97703.38;5037277;28;20032;-77
2021/06/10 06:05:13;;;;;;;26.08;23.05;;;;;;;21.24;57.38;97705.13;5041409;28;20037;-77
2021/06/10 06:07:38;;;;;;;24.92;22.27;;;;;;;21.30;57.36;97703.94;5036937;28;20246;-77
2021/06/10 06:10:05;;;;;;;23.67;21.25;;;;;;;21.37;57.36;97708.81;5065043;28;20036;-77
2021/06/10 06:12:32;;;;;;;23.98;21.48;;;;;;;21.40;57.38;97707.41;5059227;28;20033;-77
2021/06/10 06:14:57;;;;;;;24.70;22.20;;;;;;;21.44;57.10;97711.81;5039745;28;20502;-77
2021/06/10 06:17:23;;;;;;;25.25;22.60;;;;;;;21.68;57.09;97714.19;5053911;28;20032;-77
2021/06/10 06:19:48;;;;;;;24.77;21.88;;;;;;;21.93;56.65;97716.47;5064270;28;20465;-77
2021/06/10 06:22:13;;;;;;;23.52;20.92;;;;;;;22.37;55.82;97722.75;5062068;28;20028;-77
2021/06/10 06:24:39;;;;;;;23.63;21.23;;;;;;;22.60;54.99;97712.81;5063297;28;20056;-77
2021/06/10 06:27:05;;;;;;;25.67;21.92;;;;;;;22.67;53.49;97715.00;5046804;28;20324;-77
2021/06/10 06:29:31;;;;;;;22.00;19.65;;;;;;;23.09;52.96;97726.81;5037678;28;20382;-77
2021/06/10 06:31:56;;;;;;;25.83;22.38;;;;;;;23.00;52.37;97716.16;5046906;28;20124;-77
2021/06/10 06:34:21;;;;;;;24.60;21.98;;;;;;;23.17;52.50;97727.91;5022746;28;20502;-78
2021/06/10 06:36:47;;;;;;;25.05;22.48;;;;;;;23.37;51.64;97731.78;5064750;28;20043;-77
2021/06/10 06:39:13;;;;;;;23.48;21.05;;;;;;;23.68;51.48;97725.47;5036708;28;20074;-77
2021/06/10 06:41:39;;;;;;;22.92;20.60;;;;;;;23.79;50.93;97726.72;5050349;28;20024;-77
2021/06/10 06:44:04;;;;;;;23.30;21.00;;;;;;;23.72;50.60;97729.09;5037623;28;20033;-77
2021/06/10 06:46:30;;;;;;;22.58;20.42;;;;;;;23.94;50.39;97736.09;5053585;28;20039;-77
2021/06/10 06:48:55;;;;;;;23.73;21.30;;;;;;;24.08;50.46;97734.00;5063455;28;20429;-77
2021/06/10 06:51:21;;;;;;;21.35;19.25;;;;;;;24.23;49.45;97730.03;5070342;28;20047;-77
2021/06/10 06:53:46;;;;;;;20.55;18.45;;;;;;;24.27;49.70;97733.59;5053058;28;20040;-77
2021/06/10 06:56:12;;;;;;;22.10;19.70;;;;;;;24.45;50.02;97731.66;5036489;28;20114;-77
2021/06/10 06:58:38;;;;;;;20.42;18.05;;;;;;;24.90;48.99;97727.63;5052462;28;20059;-77
2021/06/10 07:01:04;;;;;;;18.73;16.73;;;;;;;25.04;48.32;97724.69;5036068;28;20037;-77
2021/06/10 07:03:29;;;;;;;21.88;19.88;;;;;;;25.14;47.21;97728.84;5060161;28;20041;-78
2021/06/10 07:05:55;;;;;;;19.90;18.00;;;;;;;25.26;47.99;97734.28;5030631;28;20027;-77
2021/06/10 07:08:20;;;;;;;20.55;18.50;;;;;;;25.38;47.33;97730.88;5069783;28;20032;-77
2021/06/10 07:10:53;;;;;;;21.35;19.25;;;;;;;25.50;46.87;97736.25;5069341;28;20086;-77
2021/06/10 07:13:21;;;;;;;19.25;17.55;;;;;;;25.78;46.49;97725.75;5068920;28;20487;-77
2021/06/10 07:15:46;;;;;;;19.52;17.67;;;;;;;26.10;45.93;97723.38;5052375;28;20123;-77
2021/06/10 07:18:11;;;;;;;18.17;16.38;;;;;;;26.28;45.58;97721.25;5052910;28;20120;-77
2021/06/10 07:20:37;;;;;;;17.67;15.98;;;;;;;26.44;44.67;97724.06;5046569;28;20017;-77
2021/06/10 07:23:02;;;;;;;19.77;17.88;;;;;;;26.38;44.44;97717.38;5052308;28;20070;-79
2021/06/10 07:25:28;;;;;;;17.95;16.30;;;;;;;26.79;44.46;97730.81;5048791;28;20036;-78
2021/06/10 07:27:53;;;;;;;19.08;17.30;;;;;;;26.71;42.72;97722.56;5067331;28;20104;-78
2021/06/10 07:30:21;;;;;;;19.15;17.30;;;;;;;26.83;43.83;97729.00;5027205;28;20480;-78
2021/06/10 07:32:47;;;;;;;18.45;16.75;;;;;;;26.82;43.75;97735.47;5039422;28;20043;-77
2021/06/10 07:35:13;;;;;;;17.30;15.70;;;;;;;27.09;43.01;97732.06;5039014;28;20112;-78
2021/06/10 07:37:38;;;;;;;16.50;15.00;;;;;;;27.25;43.14;97734.03;5029167;28;20361;-77
2021/06/10 07:40:04;;;;;;;15.82;14.30;;;;;;;27.02;42.90;97731.06;5038344;28;20148;-78
2021/06/10 07:42:30;;;;;;;15.70;14.20;;;;;;;27.07;42.91;97739.63;5032374;28;20353;-78
2021/06/10 07:44:55;;;;;;;15.57;14.18;;;;;;;27.37;42.12;97725.97;5046510;28;20064;-78
2021/06/10 07:47:21;;;;;;;13.88;12.63;;;;;;;27.62;42.12;97728.50;5064285;28;20037;-78
2021/06/10 07:49:46;;;;;;;13.45;12.32;;;;;;;27.68;41.50;97729.81;5050943;28;20592;-78
2021/06/10 07:52:12;;;;;;;14.27;12.73;;;;;;;27.76;41.71;97741.47;5051125;28;20483;-78
2021/06/10 07:54:37;;;;;;;13.07;12.02;;;;;;;27.83;40.99;97739.75;5051082;28;20028;-79
2021/06/10 07:57:04;;;;;;;12.00;11.00;;;;;;;27.75;41.59;97746.06;5060911;28;20059;-78
2021/06/10 07:59:32;;;;;;;11.95;10.95;;;;;;;28.16;40.47;97744.03;5061101;28;20083;-77
2021/06/10 08:01:57;;;;;;;11.20;10.30;;;;;;;28.42;40.51;97741.94;5061950;28;20036;-77
2021/06/10 08:04:23;;;;;;;12.35;11.43;;;;;;;28.36;39.88;97744.09;5043446;28;20033;-78
2021/06/10 08:06:49;;;;;;;10.68;9.82;;;;;;;28.77;39.65;97741.94;5050751;28;20028;-77
2021/06/10 08:09:15;;;;;;;11.45;10.38;;;;;;;29.33;38.00;97738.88;5034796;28;20123;-78
2021/06/10 08:11:44;;;;;;;10.35;9.60;;;;;;;29.38;38.05;97734.38;5052117;28;20039;-77
2021/06/10 08:14:09;;;;;;;12.27;11.23;;;;;;;29.36;39.06;97739.34;5026753;28;20040;-77
2021/06/10 08:16:35;;;;;;;11.00;10.15;;;;;;;29.50;38.84;97720.81;5070437;28;20087;-77
2021/06/10 08:19:01;;;;;;;12.35;11.25;;;;;;;29.63;39.68;97735.63;5031245;28;20029;-78
2021/06/10 08:21:26;;;;;;;10.55;9.68;;;;;;;29.70;37.67;97740.34;5062224;28;20046;-77
2021/06/10 08:23:52;;;;;;;11.43;10.45;;;;;;;29.38;38.46;97742.44;5046582;28;20021;-78
2021/06/10 08:26:17;;;;;;;10.38;9.43;;;;;;;29.87;37.75;97745.25;5059695;28;20097;-77
2021/06/10 08:28:45;;;;;;;10.77;9.77;;;;;;;29.81;36.94;97740.53;5051054;28;20028;-78
2021/06/10 08:31:10;;;;;;;10.10;9.30;;;;;;;29.88;37.76;97740.66;5071417;28;20036;-78
2021/06/10 08:33:37;;;;;;;10.38;9.57;;;;;;;30.18;37.67;97731.94;5031194;28;20467;-78
2021/06/10 08:36:06;;;;;;;10.63;9.82;;;;;;;30.09;36.56;97734.84;5046007;28;20036;-78
2021/06/10 08:38:33;;;;;;;9.90;9.10;;;;;;;30.28;36.44;97736.69;5054376;28;20573;-78
2021/06/10 08:41:02;;;;;;;10.57;9.77;;;;;;;30.20;36.39;97725.06;5045731;28;20123;-78
2021/06/10 08:43:27;;;;;;;9.32;8.55;;;;;;;30.63;35.25;97722.22;5070893;28;20050;-77
2021/06/10 08:46:05;;;;;;;10.70;9.70;;;;;;;30.37;36.06;97729.19;5054880;28;20028;-77
2021/06/10 08:48:35;;;;;;;11.48;10.38;;;;;;;30.59;34.74;97730.25;5054289;28;20037;-78
2021/06/10 08:51:01;;;;;;;9.95;9.15;;;;;;;30.88;35.37;97733.31;5042155;28;20043;-78
2021/06/10 08:53:27;;;;;;;10.13;9.43;;;;;;;30.63;35.80;97724.91;5053951;28;20032;-79
2021/06/10 08:55:56;;;;;;;11.68;10.77;;;;;;;30.80;35.67;97729.75;5047600;28;20028;-78
2021/06/10 08:58:23;;;;;;;11.25;10.25;;;;;;;31.30;34.28;97732.28;5037927;28;20029;-78
2021/06/10 09:00:49;;;;;;;10.60;9.80;;;;;;;31.10;34.85;97718.25;5050086;28;20127;-78
2021/06/10 09:03:41;;;;;;;11.25;10.27;;;;;;;30.63;34.41;97730.31;5036826;28;20225;-78
2021/06/10 09:06:11;;;;;;;10.60;9.80;;;;;;;31.12;36.15;97732.09;5046058;28;20044;-77
2021/06/10 09:08:38;;;;;;;12.10;11.20;;;;;;;31.13;34.58;97736.31;5054898;28;20036;-77
2021/06/10 09:11:25;;;;;;;11.07;10.20;;;;;;;30.54;33.39;97733.25;5070294;28;20471;-78
2021/06/10 09:13:55;;;;;;;10.20;9.30;;;;;;;30.47;33.20;97729.69;5071051;28;20056;-77
2021/06/10 09:16:33;;;;;;;10.82;10.02;;;;;;;30.28;32.29;97734.00;5070276;28;20037;-77
2021/06/10 09:19:16;;;;;;;9.98;9.00;;;;;;;29.72;34.52;97740.75;5053942;28;20071;-78
2021/06/10 09:21:41;;;;;;;9.43;8.73;;;;;;;29.64;34.74;97747.88;5037385;28;20032;-77
2021/06/10 09:24:23;;;;;;;11.70;10.82;;;;;;;29.57;34.15;97742.41;5053843;28;20032;-78
2021/06/10 09:27:01;;;;;;;10.35;9.55;;;;;;;29.83;33.97;97738.25;5037279;28;20272;-78
2021/06/10 09:29:53;;;;;;;12.98;11.88;;;;;;;29.90;33.79;97732.25;5071449;28;20433;-77
2021/06/10 09:32:25;;;;;;;13.85;12.55;;;;;;;30.39;32.25;97729.59;5059660;28;20078;-77
2021/06/10 09:34:58;;;;;;;14.85;13.65;;;;;;;30.87;31.79;97728.31;5065609;28;20100;-77
2021/06/10 09:37:33;;;;;;;12.48;11.27;;;;;;;31.29;29.79;97721.88;5046351;28;20044;-78
2021/06/10 09:40:02;;;;;;;11.95;10.95;;;;;;;31.84;28.84;97730.16;5044882;28;20028;-78
2021/06/10 09:42:42;;;;;;;12.48;11.48;;;;;;;31.20;31.16;97734.88;5068803;28;20033;-78
2021/06/10 09:45:11;;;;;;;13.13;12.07;;;;;;;30.55;31.34;97731.34;5053587;28;20017;-77
2021/06/10 09:47:37;;;;;;;13.07;11.98;;;;;;;30.04;33.14;97733.25;5053054;28;20123;-78
2021/06/10 09:50:15;;;;;;;12.60;11.70;;;;;;;30.80;32.30;97737.06;5034954;28;20471;-77
2021/06/10 09:53:16;;;;;;;13.15;11.95;;;;;;;31.46;31.03;97731.28;5069397;28;20063;-77
2021/06/10 09:55:59;;;;;;;12.23;11.05;;;;;;;32.05;31.23;97734.16;5051463;28;20051;-78
2021/06/10 09:58:26;;;;;;;12.10;11.10;;;;;;;32.11;30.63;97727.28;5053678;28;20045;-77
2021/06/10 10:00:55;;;;;;;11.77;10.88;;;;;;;32.10;29.30;97725.75;5068271;28;20033;-77
2021/06/10 10:03:30;;;;;;;10.32;9.32;;;;;;;32.51;27.61;97733.72;5035376;28;20040;-77
2021/06/10 10:06:03;;;;;;;9.45;8.75;;;;;;;32.80;26.94;97718.50;5064536;28;20050;-77
2021/06/10 10:08:29;;;;;;;10.10;9.30;;;;;;;32.84;29.36;97726.59;5036991;28;20115;-77
2021/06/10 10:10:56;;;;;;;10.90;10.00;;;;;;;32.13;29.49;97725.00;5051695;28;20035;-77
2021/06/10 10:13:24;;;;;;;12.25;11.30;;;;;;;31.97;29.94;97719.09;5068086;28;20033;-77
2021/06/10 10:15:50;;;;;;;10.95;10.15;;;;;;;32.19;29.17;97720.81;5035034;28;20063;-78
2021/06/10 10:18:17;;;;;;;10.80;10.00;;;;;;;31.52;29.96;97716.41;5029821;28;20079;-77
2021/06/10 10:20:45;;;;;;;10.65;9.82;;;;;;;32.07;31.12;97719.19;5027084;28;20034;-77
2021/06/10 10:23:13;;;;;;;11.15;10.05;;;;;;;30.90;30.74;97706.84;5043828;28;20025;-78
2021/06/10 10:25:38;;;;;;;10.88;10.07;;;;;;;30.57;31.77;97718.31;5052642;28;20052;-78
2021/06/10 10:28:09;;;;;;;10.88;9.98;;;;;;;31.15;30.64;97707.16;5035704;28;20432;-78
2021/06/10 10:30:36;;;;;;;10.73;9.93;;;;;;;31.04;30.84;97703.56;5051188;28;20068;-77
2021/06/10 10:33:22;;;;;;;9.15;8.45;;;;;;;31.88;27.86;97711.31;5051766;28;20151;-77
2021/06/10 10:35:52;;;;;;;9.90;9.10;;;;;;;31.97;28.71;97700.22;5017780;28;20392;-77
2021/06/10 10:38:21;;;;;;;10.23;9.30;;;;;;;31.97;28.22;97705.63;5069169;28;20502;-78
2021/06/10 10:40:52;;;;;;;9.32;8.43;;;;;;;32.41;29.08;97704.78;5060257;28;20178;-77
2021/06/10 10:43:18;;;;;;;10.48;9.68;;;;;;;32.51;27.98;97692.50;5031382;28;20024;-78
2021/06/10 10:45:45;;;;;;;9.45;8.65;;;;;;;32.79;27.36;97700.75;5062045;28;20420;-77
2021/06/10 10:48:14;;;;;;;9.00;8.27;;;;;;;32.54;27.67;97691.75;5068232;28;20352;-79
2021/06/10 10:50:42;;;;;;;9.20;8.40;;;;;;;32.62;28.52;97688.75;5050930;28;20071;-78
2021/06/10 10:53:17;;;;;;;9.95;9.25;;;;;;;32.63;27.13;97681.44;5066065;28;20553;-79
2021/06/10 10:55:43;;;;;;;8.27;7.70;;;;;;;32.60;28.30;97688.34;5065141;28;20075;-78
2021/06/10 10:58:16;;;;;;;7.57;7.07;;;;;;;32.59;27.25;97678.69;5034769;28;20064;-78
2021/06/10 11:00:45;;;;;;;8.20;7.50;;;;;;;31.92;27.91;97685.94;5040109;28;20382;-80
2021/06/10 11:03:29;;;;;;;8.48;7.88;;;;;;;31.59;29.19;97680.69;5059658;28;20105;-77
2021/06/10 11:05:55;;;;;;;8.20;7.50;;;;;;;31.98;28.95;97680.22;5064384;28;20028;-78
2021/06/10 11:08:23;;;;;;;7.40;6.70;;;;;;;31.60;27.40;97672.25;5051320;28;20505;-79
2021/06/10 11:10:53;;;;;;;6.90;6.30;;;;;;;31.73;27.46;97675.41;5059856;28;20063;-78
2021/06/10 11:13:22;;;;;;;6.07;5.53;;;;;;;31.82;26.44;97670.47;5050877;28;20174;-77
2021/06/10 11:15:49;;;;;;;7.43;6.72;;;;;;;31.19;27.74;97680.28;5051219;28;20682;-78
2021/06/10 11:18:46;;;;;;;7.45;6.85;;;;;;;31.04;28.81;97686.66;5051067;28;20513;-79
2021/06/10 11:21:16;;;;;;;6.90;6.30;;;;;;;31.74;26.09;97671.59;5066040;28;20345;-78
2021/06/10 11:23:41;;;;;;;7.10;6.60;;;;;;;31.37;27.94;97672.38;5051850;28;20075;-78